sensor_id;sensor_type;location;lat;lon;timestamp;P1;durP1;ratioP1;P2;durP2;ratioP2
23376;SDS011;14353;46.070;13.222;2024-03-02T00:00:05;3.00;;;2.70;;
23376;SDS011;14353;46.070;13.222;2024-03-02T00:02:43;3.55;;;2.70;;
23376;SDS011;14353;46.070;13.222;2024-03-02T00:05:11;3.67;;;3.03;;
23376;SDS011;14353;46.070;13.222;2024-03-02T00:07:41;3.63;;;2.70;;
23376;SDS011;14353;46.070;13.222;2024-03-02T00:10:09;2.95;;;2.60;;
23376;SDS011;14353;46.070;13.222;2024-03-02T00:12:36;4.18;;;2.70;;
23376;SDS011;14353;46.070;13.222;2024-03-02T00:15:06;4.18;;;2.53;;
23376;SDS011;14353;46.070;13.222;2024-03-02T00:17:54;3.85;;;2.90;;
23376;SDS011;14353;46.070;13.222;2024-03-02T00:20:24;3.58;;;2.80;;
23376;SDS011;14353;46.070;13.222;2024-03-02T00:22:54;3.58;;;2.80;;
23376;SDS011;14353;46.070;13.222;2024-03-02T00:25:49;4.05;;;3.05;;
23376;SDS011;14353;46.070;13.222;2024-03-02T00:28:32;4.03;;;2.83;;
23376;SDS011;14353;46.070;13.222;2024-03-02T00:30:59;3.85;;;2.90;;
23376;SDS011;14353;46.070;13.222;2024-03-02T00:36:01;3.10;;;2.63;;
23376;SDS011;14353;46.070;13.222;2024-03-02T00:38:28;4.70;;;3.08;;
23376;SDS011;14353;46.070;13.222;2024-03-02T00:41:03;4.00;;;2.70;;
23376;SDS011;14353;46.070;13.222;2024-03-02T00:46:17;3.75;;;2.70;;
23376;SDS011;14353;46.070;13.222;2024-03-02T00:51:15;3.72;;;2.80;;
23376;SDS011;14353;46.070;13.222;2024-03-02T00:53:41;3.85;;;2.90;;
23376;SDS011;14353;46.070;13.222;2024-03-02T00:56:08;3.58;;;2.50;;
23376;SDS011;14353;46.070;13.222;2024-03-02T00:58:36;3.53;;;2.67;;
23376;SDS011;14353;46.070;13.222;2024-03-02T01:01:02;2.97;;;2.67;;
23376;SDS011;14353;46.070;13.222;2024-03-02T01:03:28;4.05;;;2.70;;
23376;SDS011;14353;46.070;13.222;2024-03-02T01:05:54;3.92;;;2.42;;
23376;SDS011;14353;46.070;13.222;2024-03-02T01:08:19;3.33;;;2.75;;
23376;SDS011;14353;46.070;13.222;2024-03-02T01:10:45;3.70;;;2.65;;
23376;SDS011;14353;46.070;13.222;2024-03-02T01:13:11;3.70;;;2.50;;
23376;SDS011;14353;46.070;13.222;2024-03-02T01:15:36;2.90;;;2.50;;
23376;SDS011;14353;46.070;13.222;2024-03-02T01:18:02;3.10;;;2.40;;
23376;SDS011;14353;46.070;13.222;2024-03-02T01:20:28;5.50;;;2.50;;
23376;SDS011;14353;46.070;13.222;2024-03-02T01:22:53;3.92;;;2.80;;
23376;SDS011;14353;46.070;13.222;2024-03-02T01:25:20;3.83;;;2.50;;
23376;SDS011;14353;46.070;13.222;2024-03-02T01:27:46;4.00;;;2.42;;
23376;SDS011;14353;46.070;13.222;2024-03-02T01:30:11;2.63;;;2.40;;
23376;SDS011;14353;46.070;13.222;2024-03-02T01:32:37;3.53;;;2.38;;
23376;SDS011;14353;46.070;13.222;2024-03-02T01:35:04;2.67;;;2.30;;
23376;SDS011;14353;46.070;13.222;2024-03-02T01:37:30;3.15;;;2.40;;
23376;SDS011;14353;46.070;13.222;2024-03-02T01:39:56;3.17;;;2.50;;
23376;SDS011;14353;46.070;13.222;2024-03-02T01:42:22;3.15;;;2.70;;
23376;SDS011;14353;46.070;13.222;2024-03-02T01:44:47;2.83;;;2.30;;
23376;SDS011;14353;46.070;13.222;2024-03-02T01:47:13;3.22;;;2.10;;
23376;SDS011;14353;46.070;13.222;2024-03-02T01:49:39;2.67;;;2.28;;
23376;SDS011;14353;46.070;13.222;2024-03-02T01:52:06;3.40;;;2.40;;
23376;SDS011;14353;46.070;13.222;2024-03-02T01:54:32;3.90;;;2.25;;
23376;SDS011;14353;46.070;13.222;2024-03-02T01:56:58;3.22;;;2.40;;
23376;SDS011;14353;46.070;13.222;2024-03-02T01:59:24;2.88;;;2.35;;
23376;SDS011;14353;46.070;13.222;2024-03-02T02:01:50;3.88;;;2.40;;
23376;SDS011;14353;46.070;13.222;2024-03-02T02:04:16;3.33;;;2.28;;
23376;SDS011;14353;46.070;13.222;2024-03-02T02:06:43;4.65;;;2.58;;
23376;SDS011;14353;46.070;13.222;2024-03-02T02:09:09;2.83;;;2.30;;
23376;SDS011;14353;46.070;13.222;2024-03-02T02:11:35;3.10;;;2.38;;
23376;SDS011;14353;46.070;13.222;2024-03-02T02:14:01;4.72;;;2.55;;
23376;SDS011;14353;46.070;13.222;2024-03-02T02:16:26;3.20;;;2.38;;
23376;SDS011;14353;46.070;13.222;2024-03-02T02:18:52;3.05;;;2.20;;
23376;SDS011;14353;46.070;13.222;2024-03-02T02:21:22;4.15;;;2.47;;
23376;SDS011;14353;46.070;13.222;2024-03-02T02:23:48;2.75;;;2.28;;
23376;SDS011;14353;46.070;13.222;2024-03-02T02:26:13;2.90;;;2.30;;
23376;SDS011;14353;46.070;13.222;2024-03-02T02:28:39;2.55;;;2.22;;
23376;SDS011;14353;46.070;13.222;2024-03-02T02:31:11;2.83;;;2.30;;
23376;SDS011;14353;46.070;13.222;2024-03-02T02:33:39;4.32;;;2.25;;
23376;SDS011;14353;46.070;13.222;2024-03-02T02:36:05;2.90;;;2.60;;
23376;SDS011;14353;46.070;13.222;2024-03-02T02:38:31;3.30;;;2.22;;
23376;SDS011;14353;46.070;13.222;2024-03-02T02:41:00;3.10;;;2.17;;
23376;SDS011;14353;46.070;13.222;2024-03-02T02:43:26;4.18;;;2.20;;
23376;SDS011;14353;46.070;13.222;2024-03-02T02:45:51;2.63;;;2.13;;
23376;SDS011;14353;46.070;13.222;2024-03-02T02:48:17;3.53;;;2.13;;
23376;SDS011;14353;46.070;13.222;2024-03-02T02:50:43;3.03;;;2.13;;
23376;SDS011;14353;46.070;13.222;2024-03-02T02:53:08;3.15;;;2.17;;
23376;SDS011;14353;46.070;13.222;2024-03-02T02:55:35;3.20;;;2.35;;
23376;SDS011;14353;46.070;13.222;2024-03-02T02:58:05;3.17;;;2.33;;
23376;SDS011;14353;46.070;13.222;2024-03-02T03:00:32;3.08;;;2.00;;
23376;SDS011;14353;46.070;13.222;2024-03-02T03:02:58;2.90;;;2.33;;
23376;SDS011;14353;46.070;13.222;2024-03-02T03:05:24;2.78;;;2.28;;
23376;SDS011;14353;46.070;13.222;2024-03-02T03:07:50;4.25;;;2.50;;
23376;SDS011;14353;46.070;13.222;2024-03-02T03:10:16;2.95;;;2.15;;
23376;SDS011;14353;46.070;13.222;2024-03-02T03:12:42;3.33;;;2.10;;
23376;SDS011;14353;46.070;13.222;2024-03-02T03:15:08;3.13;;;2.00;;
23376;SDS011;14353;46.070;13.222;2024-03-02T03:17:35;3.03;;;2.20;;
23376;SDS011;14353;46.070;13.222;2024-03-02T03:20:02;2.72;;;2.13;;
23376;SDS011;14353;46.070;13.222;2024-03-02T03:22:29;2.50;;;1.90;;
23376;SDS011;14353;46.070;13.222;2024-03-02T03:24:56;2.33;;;2.00;;
23376;SDS011;14353;46.070;13.222;2024-03-02T03:27:22;3.22;;;2.28;;
23376;SDS011;14353;46.070;13.222;2024-03-02T03:29:48;2.55;;;2.00;;
23376;SDS011;14353;46.070;13.222;2024-03-02T03:32:14;2.95;;;2.10;;
23376;SDS011;14353;46.070;13.222;2024-03-02T03:34:39;2.80;;;2.10;;
23376;SDS011;14353;46.070;13.222;2024-03-02T03:37:05;2.20;;;2.00;;
23376;SDS011;14353;46.070;13.222;2024-03-02T03:39:31;2.70;;;2.00;;
23376;SDS011;14353;46.070;13.222;2024-03-02T03:41:58;2.30;;;2.05;;
23376;SDS011;14353;46.070;13.222;2024-03-02T03:44:24;2.63;;;1.75;;
23376;SDS011;14353;46.070;13.222;2024-03-02T03:46:50;2.38;;;1.95;;
23376;SDS011;14353;46.070;13.222;2024-03-02T03:49:16;2.10;;;1.90;;
23376;SDS011;14353;46.070;13.222;2024-03-02T03:51:42;2.53;;;1.83;;
23376;SDS011;14353;46.070;13.222;2024-03-02T03:54:08;2.80;;;1.92;;
23376;SDS011;14353;46.070;13.222;2024-03-02T03:56:36;3.92;;;1.90;;
23376;SDS011;14353;46.070;13.222;2024-03-02T03:59:02;2.40;;;2.08;;
23376;SDS011;14353;46.070;13.222;2024-03-02T04:01:27;2.25;;;1.98;;
23376;SDS011;14353;46.070;13.222;2024-03-02T04:03:53;3.95;;;2.08;;
23376;SDS011;14353;46.070;13.222;2024-03-02T04:06:19;2.50;;;1.83;;
23376;SDS011;14353;46.070;13.222;2024-03-02T04:08:44;3.60;;;1.80;;
23376;SDS011;14353;46.070;13.222;2024-03-02T04:11:10;2.30;;;2.00;;
23376;SDS011;14353;46.070;13.222;2024-03-02T04:13:36;2.67;;;1.75;;
23376;SDS011;14353;46.070;13.222;2024-03-02T04:16:01;2.38;;;1.80;;
23376;SDS011;14353;46.070;13.222;2024-03-02T04:18:28;2.25;;;1.80;;
23376;SDS011;14353;46.070;13.222;2024-03-02T04:20:54;2.72;;;1.77;;
23376;SDS011;14353;46.070;13.222;2024-03-02T04:23:20;2.78;;;1.77;;
23376;SDS011;14353;46.070;13.222;2024-03-02T04:25:45;2.40;;;1.80;;
23376;SDS011;14353;46.070;13.222;2024-03-02T04:28:11;3.03;;;1.80;;
23376;SDS011;14353;46.070;13.222;2024-03-02T04:30:37;2.63;;;1.80;;
23376;SDS011;14353;46.070;13.222;2024-03-02T04:33:03;2.72;;;1.80;;
23376;SDS011;14353;46.070;13.222;2024-03-02T04:35:30;2.30;;;1.75;;
23376;SDS011;14353;46.070;13.222;2024-03-02T04:37:56;2.67;;;1.70;;
23376;SDS011;14353;46.070;13.222;2024-03-02T04:40:22;1.90;;;1.75;;
23376;SDS011;14353;46.070;13.222;2024-03-02T04:42:47;2.35;;;2.00;;
23376;SDS011;14353;46.070;13.222;2024-03-02T04:45:13;2.00;;;1.80;;
23376;SDS011;14353;46.070;13.222;2024-03-02T04:47:39;3.22;;;1.77;;
23376;SDS011;14353;46.070;13.222;2024-03-02T04:50:04;3.28;;;1.80;;
23376;SDS011;14353;46.070;13.222;2024-03-02T04:52:32;2.50;;;1.77;;
23376;SDS011;14353;46.070;13.222;2024-03-02T04:54:58;1.98;;;1.80;;
23376;SDS011;14353;46.070;13.222;2024-03-02T04:57:38;2.10;;;1.70;;
23376;SDS011;14353;46.070;13.222;2024-03-02T05:00:04;2.58;;;1.50;;
23376;SDS011;14353;46.070;13.222;2024-03-02T05:02:32;2.58;;;1.67;;
23376;SDS011;14353;46.070;13.222;2024-03-02T05:04:57;2.67;;;2.00;;
23376;SDS011;14353;46.070;13.222;2024-03-02T05:07:23;2.20;;;1.60;;
23376;SDS011;14353;46.070;13.222;2024-03-02T05:09:49;2.45;;;1.60;;
23376;SDS011;14353;46.070;13.222;2024-03-02T05:12:14;1.58;;;1.48;;
23376;SDS011;14353;46.070;13.222;2024-03-02T05:14:59;2.33;;;1.90;;
23376;SDS011;14353;46.070;13.222;2024-03-02T05:17:24;1.88;;;1.60;;
23376;SDS011;14353;46.070;13.222;2024-03-02T05:19:50;2.67;;;1.70;;
23376;SDS011;14353;46.070;13.222;2024-03-02T05:22:16;3.65;;;1.70;;
23376;SDS011;14353;46.070;13.222;2024-03-02T05:24:41;2.22;;;1.70;;
23376;SDS011;14353;46.070;13.222;2024-03-02T05:27:07;2.25;;;1.70;;
23376;SDS011;14353;46.070;13.222;2024-03-02T05:29:33;2.08;;;1.70;;
23376;SDS011;14353;46.070;13.222;2024-03-02T05:31:58;2.97;;;1.77;;
23376;SDS011;14353;46.070;13.222;2024-03-02T05:34:24;3.67;;;1.92;;
23376;SDS011;14353;46.070;13.222;2024-03-02T05:36:50;1.67;;;1.38;;
23376;SDS011;14353;46.070;13.222;2024-03-02T05:39:15;2.22;;;1.50;;
23376;SDS011;14353;46.070;13.222;2024-03-02T05:41:41;3.55;;;1.90;;
23376;SDS011;14353;46.070;13.222;2024-03-02T05:44:07;3.17;;;1.60;;
23376;SDS011;14353;46.070;13.222;2024-03-02T05:46:32;2.17;;;1.77;;
23376;SDS011;14353;46.070;13.222;2024-03-02T05:48:59;1.75;;;1.52;;
23376;SDS011;14353;46.070;13.222;2024-03-02T05:51:25;1.58;;;1.42;;
23376;SDS011;14353;46.070;13.222;2024-03-02T05:53:54;1.80;;;1.50;;
23376;SDS011;14353;46.070;13.222;2024-03-02T05:56:19;2.13;;;1.42;;
23376;SDS011;14353;46.070;13.222;2024-03-02T05:58:45;1.92;;;1.48;;
23376;SDS011;14353;46.070;13.222;2024-03-02T06:01:33;2.50;;;1.85;;
23376;SDS011;14353;46.070;13.222;2024-03-02T06:03:59;1.80;;;1.50;;
23376;SDS011;14353;46.070;13.222;2024-03-02T06:06:25;1.70;;;1.55;;
23376;SDS011;14353;46.070;13.222;2024-03-02T06:08:51;2.35;;;1.70;;
23376;SDS011;14353;46.070;13.222;2024-03-02T06:11:18;2.08;;;1.42;;
23376;SDS011;14353;46.070;13.222;2024-03-02T06:13:44;1.63;;;1.25;;
23376;SDS011;14353;46.070;13.222;2024-03-02T06:16:10;3.35;;;1.70;;
23376;SDS011;14353;46.070;13.222;2024-03-02T06:18:36;1.77;;;1.38;;
23376;SDS011;14353;46.070;13.222;2024-03-02T06:21:02;2.35;;;1.50;;
23376;SDS011;14353;46.070;13.222;2024-03-02T06:23:28;2.05;;;1.40;;
23376;SDS011;14353;46.070;13.222;2024-03-02T06:25:53;1.75;;;1.27;;
23376;SDS011;14353;46.070;13.222;2024-03-02T06:28:19;1.30;;;1.20;;
23376;SDS011;14353;46.070;13.222;2024-03-02T06:30:45;1.95;;;1.50;;
23376;SDS011;14353;46.070;13.222;2024-03-02T06:33:11;1.50;;;1.40;;
23376;SDS011;14353;46.070;13.222;2024-03-02T06:35:37;1.60;;;1.48;;
23376;SDS011;14353;46.070;13.222;2024-03-02T06:38:04;1.77;;;1.50;;
23376;SDS011;14353;46.070;13.222;2024-03-02T06:40:30;3.38;;;1.60;;
23376;SDS011;14353;46.070;13.222;2024-03-02T06:42:55;4.72;;;1.70;;
23376;SDS011;14353;46.070;13.222;2024-03-02T06:45:21;4.63;;;1.70;;
23376;SDS011;14353;46.070;13.222;2024-03-02T06:47:47;2.45;;;1.40;;
23376;SDS011;14353;46.070;13.222;2024-03-02T06:50:12;2.17;;;1.13;;
23376;SDS011;14353;46.070;13.222;2024-03-02T06:52:38;2.60;;;1.38;;
23376;SDS011;14353;46.070;13.222;2024-03-02T06:55:04;5.78;;;1.40;;
23376;SDS011;14353;46.070;13.222;2024-03-02T06:57:30;4.60;;;1.40;;
23376;SDS011;14353;46.070;13.222;2024-03-02T06:59:56;3.25;;;1.58;;
23376;SDS011;14353;46.070;13.222;2024-03-02T07:02:24;3.47;;;1.58;;
23376;SDS011;14353;46.070;13.222;2024-03-02T07:04:56;5.97;;;1.60;;
23376;SDS011;14353;46.070;13.222;2024-03-02T07:07:22;3.55;;;1.90;;
23376;SDS011;14353;46.070;13.222;2024-03-02T07:09:48;7.22;;;1.83;;
23376;SDS011;14353;46.070;13.222;2024-03-02T07:12:14;6.68;;;1.70;;
23376;SDS011;14353;46.070;13.222;2024-03-02T07:14:40;5.75;;;1.63;;
23376;SDS011;14353;46.070;13.222;2024-03-02T07:17:19;4.43;;;1.95;;
23376;SDS011;14353;46.070;13.222;2024-03-02T07:19:45;4.32;;;1.60;;
23376;SDS011;14353;46.070;13.222;2024-03-02T07:22:11;3.75;;;1.67;;
23376;SDS011;14353;46.070;13.222;2024-03-02T07:24:41;5.53;;;1.70;;
23376;SDS011;14353;46.070;13.222;2024-03-02T07:27:08;7.00;;;1.58;;
23376;SDS011;14353;46.070;13.222;2024-03-02T07:29:36;3.88;;;1.73;;
23376;SDS011;14353;46.070;13.222;2024-03-02T07:32:01;4.82;;;2.13;;
23376;SDS011;14353;46.070;13.222;2024-03-02T07:34:27;7.20;;;1.83;;
23376;SDS011;14353;46.070;13.222;2024-03-02T07:36:53;5.43;;;1.95;;
23376;SDS011;14353;46.070;13.222;2024-03-02T07:39:19;9.95;;;2.72;;
23376;SDS011;14353;46.070;13.222;2024-03-02T07:41:45;6.72;;;2.00;;
23376;SDS011;14353;46.070;13.222;2024-03-02T07:44:11;6.47;;;1.90;;
23376;SDS011;14353;46.070;13.222;2024-03-02T07:46:43;5.78;;;2.40;;
23376;SDS011;14353;46.070;13.222;2024-03-02T07:49:14;4.82;;;1.90;;
23376;SDS011;14353;46.070;13.222;2024-03-02T07:51:40;4.57;;;1.80;;
23376;SDS011;14353;46.070;13.222;2024-03-02T07:54:06;5.05;;;2.03;;
23376;SDS011;14353;46.070;13.222;2024-03-02T07:56:32;4.32;;;1.70;;
23376;SDS011;14353;46.070;13.222;2024-03-02T07:58:57;5.85;;;2.08;;
23376;SDS011;14353;46.070;13.222;2024-03-02T08:01:26;5.00;;;2.00;;
23376;SDS011;14353;46.070;13.222;2024-03-02T08:04:00;8.35;;;1.95;;
23376;SDS011;14353;46.070;13.222;2024-03-02T08:06:26;7.00;;;2.10;;
23376;SDS011;14353;46.070;13.222;2024-03-02T08:08:56;6.22;;;2.10;;
23376;SDS011;14353;46.070;13.222;2024-03-02T08:11:23;5.70;;;2.00;;
23376;SDS011;14353;46.070;13.222;2024-03-02T08:13:49;6.97;;;2.00;;
23376;SDS011;14353;46.070;13.222;2024-03-02T08:16:15;6.13;;;2.08;;
23376;SDS011;14353;46.070;13.222;2024-03-02T08:18:44;5.80;;;1.98;;
23376;SDS011;14353;46.070;13.222;2024-03-02T08:21:11;13.50;;;2.88;;
23376;SDS011;14353;46.070;13.222;2024-03-02T08:23:37;11.43;;;2.25;;
23376;SDS011;14353;46.070;13.222;2024-03-02T08:26:03;7.15;;;2.00;;
23376;SDS011;14353;46.070;13.222;2024-03-02T08:28:29;11.07;;;2.15;;
23376;SDS011;14353;46.070;13.222;2024-03-02T08:30:55;6.82;;;2.17;;
23376;SDS011;14353;46.070;13.222;2024-03-02T08:33:21;5.22;;;1.83;;
23376;SDS011;14353;46.070;13.222;2024-03-02T08:35:47;6.57;;;2.20;;
23376;SDS011;14353;46.070;13.222;2024-03-02T08:38:13;6.85;;;2.15;;
23376;SDS011;14353;46.070;13.222;2024-03-02T08:40:39;7.28;;;2.50;;
23376;SDS011;14353;46.070;13.222;2024-03-02T08:43:05;5.60;;;2.22;;
23376;SDS011;14353;46.070;13.222;2024-03-02T08:45:31;6.28;;;2.08;;
23376;SDS011;14353;46.070;13.222;2024-03-02T08:47:57;5.45;;;1.98;;
23376;SDS011;14353;46.070;13.222;2024-03-02T08:50:22;8.82;;;2.20;;
23376;SDS011;14353;46.070;13.222;2024-03-02T08:52:48;5.95;;;1.85;;
23376;SDS011;14353;46.070;13.222;2024-03-02T08:55:14;5.03;;;2.13;;
23376;SDS011;14353;46.070;13.222;2024-03-02T08:57:40;3.85;;;1.92;;
23376;SDS011;14353;46.070;13.222;2024-03-02T09:00:07;4.35;;;2.20;;
23376;SDS011;14353;46.070;13.222;2024-03-02T09:02:33;8.25;;;2.17;;
23376;SDS011;14353;46.070;13.222;2024-03-02T09:04:59;7.35;;;2.47;;
23376;SDS011;14353;46.070;13.222;2024-03-02T09:07:25;7.03;;;2.10;;
23376;SDS011;14353;46.070;13.222;2024-03-02T09:09:51;6.00;;;1.95;;
23376;SDS011;14353;46.070;13.222;2024-03-02T09:12:17;8.45;;;2.05;;
23376;SDS011;14353;46.070;13.222;2024-03-02T09:14:45;13.55;;;2.58;;
23376;SDS011;14353;46.070;13.222;2024-03-02T09:17:12;7.13;;;2.40;;
23376;SDS011;14353;46.070;13.222;2024-03-02T09:19:39;6.50;;;2.28;;
23376;SDS011;14353;46.070;13.222;2024-03-02T09:22:06;8.68;;;1.95;;
23376;SDS011;14353;46.070;13.222;2024-03-02T09:24:32;6.25;;;1.88;;
23376;SDS011;14353;46.070;13.222;2024-03-02T09:27:01;4.75;;;1.80;;
23376;SDS011;14353;46.070;13.222;2024-03-02T09:29:26;4.85;;;2.20;;
23376;SDS011;14353;46.070;13.222;2024-03-02T09:31:52;7.80;;;2.03;;
23376;SDS011;14353;46.070;13.222;2024-03-02T09:34:18;6.68;;;2.35;;
23376;SDS011;14353;46.070;13.222;2024-03-02T09:36:43;4.43;;;1.90;;
23376;SDS011;14353;46.070;13.222;2024-03-02T09:39:09;6.38;;;2.10;;
23376;SDS011;14353;46.070;13.222;2024-03-02T09:41:36;4.30;;;2.10;;
23376;SDS011;14353;46.070;13.222;2024-03-02T09:44:03;6.65;;;2.10;;
23376;SDS011;14353;46.070;13.222;2024-03-02T09:46:30;6.68;;;2.28;;
23376;SDS011;14353;46.070;13.222;2024-03-02T09:48:56;7.15;;;2.22;;
23376;SDS011;14353;46.070;13.222;2024-03-02T09:51:22;10.18;;;1.92;;
23376;SDS011;14353;46.070;13.222;2024-03-02T09:53:48;3.92;;;1.90;;
23376;SDS011;14353;46.070;13.222;2024-03-02T09:56:14;5.78;;;1.85;;
23376;SDS011;14353;46.070;13.222;2024-03-02T09:58:41;5.15;;;1.90;;
23376;SDS011;14353;46.070;13.222;2024-03-02T10:01:09;5.30;;;2.03;;
23376;SDS011;14353;46.070;13.222;2024-03-02T10:03:36;14.60;;;2.33;;
23376;SDS011;14353;46.070;13.222;2024-03-02T10:06:21;7.65;;;2.17;;
23376;SDS011;14353;46.070;13.222;2024-03-02T10:08:48;7.07;;;2.20;;
23376;SDS011;14353;46.070;13.222;2024-03-02T10:11:27;13.98;;;2.92;;
23376;SDS011;14353;46.070;13.222;2024-03-02T10:14:10;15.20;;;2.40;;
23376;SDS011;14353;46.070;13.222;2024-03-02T10:16:37;10.20;;;2.20;;
23376;SDS011;14353;46.070;13.222;2024-03-02T10:19:18;7.50;;;2.50;;
23376;SDS011;14353;46.070;13.222;2024-03-02T10:21:48;7.97;;;2.20;;
23376;SDS011;14353;46.070;13.222;2024-03-02T10:24:15;8.57;;;2.47;;
23376;SDS011;14353;46.070;13.222;2024-03-02T10:26:41;10.55;;;2.80;;
23376;SDS011;14353;46.070;13.222;2024-03-02T10:29:11;12.55;;;2.20;;
23376;SDS011;14353;46.070;13.222;2024-03-02T10:31:37;10.77;;;2.50;;
23376;SDS011;14353;46.070;13.222;2024-03-02T10:34:04;14.25;;;2.60;;
23376;SDS011;14353;46.070;13.222;2024-03-02T10:36:30;23.10;;;3.22;;
23376;SDS011;14353;46.070;13.222;2024-03-02T10:38:56;18.77;;;2.90;;
23376;SDS011;14353;46.070;13.222;2024-03-02T10:41:24;23.65;;;3.45;;
23376;SDS011;14353;46.070;13.222;2024-03-02T10:43:55;30.83;;;4.40;;
23376;SDS011;14353;46.070;13.222;2024-03-02T10:46:29;31.65;;;4.10;;
23376;SDS011;14353;46.070;13.222;2024-03-02T10:48:59;19.58;;;3.03;;
23376;SDS011;14353;46.070;13.222;2024-03-02T10:51:26;17.08;;;3.42;;
23376;SDS011;14353;46.070;13.222;2024-03-02T10:53:56;14.63;;;3.40;;
23376;SDS011;14353;46.070;13.222;2024-03-02T10:59:21;22.20;;;3.25;;
23376;SDS011;14353;46.070;13.222;2024-03-02T11:01:58;15.75;;;2.60;;
23376;SDS011;14353;46.070;13.222;2024-03-02T11:04:26;11.93;;;2.78;;
23376;SDS011;14353;46.070;13.222;2024-03-02T11:07:00;16.90;;;3.25;;
23376;SDS011;14353;46.070;13.222;2024-03-02T11:09:33;15.05;;;3.20;;
23376;SDS011;14353;46.070;13.222;2024-03-02T11:12:04;14.70;;;3.03;;
23376;SDS011;14353;46.070;13.222;2024-03-02T11:14:37;19.05;;;3.33;;
23376;SDS011;14353;46.070;13.222;2024-03-02T11:17:08;16.95;;;3.05;;
23376;SDS011;14353;46.070;13.222;2024-03-02T11:19:35;12.73;;;2.75;;
23376;SDS011;14353;46.070;13.222;2024-03-02T11:22:03;13.57;;;2.63;;
23376;SDS011;14353;46.070;13.222;2024-03-02T11:24:30;13.13;;;2.88;;
23376;SDS011;14353;46.070;13.222;2024-03-02T11:26:58;8.27;;;3.03;;
23376;SDS011;14353;46.070;13.222;2024-03-02T11:32:22;14.48;;;2.63;;
23376;SDS011;14353;46.070;13.222;2024-03-02T11:37:17;13.02;;;2.53;;
23376;SDS011;14353;46.070;13.222;2024-03-02T11:39:44;11.43;;;2.80;;
23376;SDS011;14353;46.070;13.222;2024-03-02T11:42:13;12.38;;;2.67;;
23376;SDS011;14353;46.070;13.222;2024-03-02T11:44:45;7.13;;;2.85;;
23376;SDS011;14353;46.070;13.222;2024-03-02T11:47:15;11.45;;;3.00;;
23376;SDS011;14353;46.070;13.222;2024-03-02T11:49:49;17.08;;;3.42;;
23376;SDS011;14353;46.070;13.222;2024-03-02T11:52:19;28.45;;;4.07;;
23376;SDS011;14353;46.070;13.222;2024-03-02T11:54:47;20.38;;;3.33;;
23376;SDS011;14353;46.070;13.222;2024-03-02T11:57:20;20.92;;;3.83;;
23376;SDS011;14353;46.070;13.222;2024-03-02T11:59:51;21.67;;;3.40;;
23376;SDS011;14353;46.070;13.222;2024-03-02T12:02:18;18.63;;;3.17;;
23376;SDS011;14353;46.070;13.222;2024-03-02T12:04:45;17.65;;;4.03;;
23376;SDS011;14353;46.070;13.222;2024-03-02T12:07:18;22.27;;;3.78;;
23376;SDS011;14353;46.070;13.222;2024-03-02T12:09:46;12.77;;;2.92;;
23376;SDS011;14353;46.070;13.222;2024-03-02T12:12:12;20.88;;;3.30;;
23376;SDS011;14353;46.070;13.222;2024-03-02T12:14:49;11.40;;;3.10;;
23376;SDS011;14353;46.070;13.222;2024-03-02T12:17:16;11.30;;;2.85;;
23376;SDS011;14353;46.070;13.222;2024-03-02T12:19:42;10.82;;;2.70;;
23376;SDS011;14353;46.070;13.222;2024-03-02T12:22:08;9.95;;;2.95;;
23376;SDS011;14353;46.070;13.222;2024-03-02T12:24:33;11.70;;;3.08;;
23376;SDS011;14353;46.070;13.222;2024-03-02T12:26:59;8.55;;;3.03;;
23376;SDS011;14353;46.070;13.222;2024-03-02T12:29:25;9.90;;;2.70;;
23376;SDS011;14353;46.070;13.222;2024-03-02T12:31:54;10.20;;;2.47;;
23376;SDS011;14353;46.070;13.222;2024-03-02T12:34:21;14.10;;;3.05;;
23376;SDS011;14353;46.070;13.222;2024-03-02T12:36:48;13.60;;;2.83;;
23376;SDS011;14353;46.070;13.222;2024-03-02T12:39:21;9.07;;;2.67;;
23376;SDS011;14353;46.070;13.222;2024-03-02T12:41:49;5.88;;;2.67;;
23376;SDS011;14353;46.070;13.222;2024-03-02T12:44:16;12.88;;;2.58;;
23376;SDS011;14353;46.070;13.222;2024-03-02T12:46:42;12.43;;;2.30;;
23376;SDS011;14353;46.070;13.222;2024-03-02T12:49:09;12.45;;;2.55;;
23376;SDS011;14353;46.070;13.222;2024-03-02T12:51:41;6.47;;;2.17;;
23376;SDS011;14353;46.070;13.222;2024-03-02T12:54:08;8.00;;;2.40;;
23376;SDS011;14353;46.070;13.222;2024-03-02T12:56:35;8.77;;;2.58;;
23376;SDS011;14353;46.070;13.222;2024-03-02T12:59:06;4.75;;;2.45;;
23376;SDS011;14353;46.070;13.222;2024-03-02T13:01:32;10.10;;;2.50;;
23376;SDS011;14353;46.070;13.222;2024-03-02T13:03:58;8.98;;;2.60;;
23376;SDS011;14353;46.070;13.222;2024-03-02T13:06:25;8.52;;;2.10;;
23376;SDS011;14353;46.070;13.222;2024-03-02T13:08:54;8.98;;;2.22;;
23376;SDS011;14353;46.070;13.222;2024-03-02T13:11:20;6.43;;;2.05;;
23376;SDS011;14353;46.070;13.222;2024-03-02T13:13:48;7.63;;;2.17;;
23376;SDS011;14353;46.070;13.222;2024-03-02T13:16:15;8.75;;;2.03;;
23376;SDS011;14353;46.070;13.222;2024-03-02T13:18:41;7.75;;;2.13;;
23376;SDS011;14353;46.070;13.222;2024-03-02T13:21:09;5.20;;;2.00;;
23376;SDS011;14353;46.070;13.222;2024-03-02T13:23:35;6.75;;;2.10;;
23376;SDS011;14353;46.070;13.222;2024-03-02T13:26:00;7.68;;;2.10;;
23376;SDS011;14353;46.070;13.222;2024-03-02T13:28:27;9.52;;;2.17;;
23376;SDS011;14353;46.070;13.222;2024-03-02T13:30:52;5.60;;;2.03;;
23376;SDS011;14353;46.070;13.222;2024-03-02T13:33:18;7.93;;;2.17;;
23376;SDS011;14353;46.070;13.222;2024-03-02T13:35:50;5.20;;;2.38;;
23376;SDS011;14353;46.070;13.222;2024-03-02T13:38:20;6.00;;;2.13;;
23376;SDS011;14353;46.070;13.222;2024-03-02T13:40:46;9.23;;;2.03;;
23376;SDS011;14353;46.070;13.222;2024-03-02T13:43:16;8.50;;;2.10;;
23376;SDS011;14353;46.070;13.222;2024-03-02T13:45:42;9.05;;;2.08;;
23376;SDS011;14353;46.070;13.222;2024-03-02T13:48:08;4.97;;;1.92;;
23376;SDS011;14353;46.070;13.222;2024-03-02T13:50:34;6.63;;;2.03;;
23376;SDS011;14353;46.070;13.222;2024-03-02T13:53:00;9.25;;;2.08;;
23376;SDS011;14353;46.070;13.222;2024-03-02T13:55:25;7.00;;;2.20;;
23376;SDS011;14353;46.070;13.222;2024-03-02T13:57:51;5.18;;;1.90;;
23376;SDS011;14353;46.070;13.222;2024-03-02T14:00:17;6.10;;;2.10;;
23376;SDS011;14353;46.070;13.222;2024-03-02T14:02:43;5.43;;;1.90;;
23376;SDS011;14353;46.070;13.222;2024-03-02T14:05:10;6.15;;;1.70;;
23376;SDS011;14353;46.070;13.222;2024-03-02T14:07:39;6.13;;;1.95;;
23376;SDS011;14353;46.070;13.222;2024-03-02T14:10:06;2.92;;;1.80;;
23376;SDS011;14353;46.070;13.222;2024-03-02T14:12:32;5.07;;;2.20;;
23376;SDS011;14353;46.070;13.222;2024-03-02T14:14:58;5.53;;;1.98;;
23376;SDS011;14353;46.070;13.222;2024-03-02T14:17:27;6.57;;;1.77;;
23376;SDS011;14353;46.070;13.222;2024-03-02T14:19:53;4.72;;;1.80;;
23376;SDS011;14353;46.070;13.222;2024-03-02T14:22:19;3.72;;;1.70;;
23376;SDS011;14353;46.070;13.222;2024-03-02T14:24:45;2.67;;;1.73;;
23376;SDS011;14353;46.070;13.222;2024-03-02T14:27:11;5.57;;;2.00;;
23376;SDS011;14353;46.070;13.222;2024-03-02T14:29:39;3.55;;;1.92;;
23376;SDS011;14353;46.070;13.222;2024-03-02T14:32:05;7.05;;;2.20;;
23376;SDS011;14353;46.070;13.222;2024-03-02T14:34:31;5.13;;;2.00;;
23376;SDS011;14353;46.070;13.222;2024-03-02T14:36:58;7.30;;;2.10;;
23376;SDS011;14353;46.070;13.222;2024-03-02T14:39:24;5.32;;;2.00;;
23376;SDS011;14353;46.070;13.222;2024-03-02T14:41:50;4.85;;;1.55;;
23376;SDS011;14353;46.070;13.222;2024-03-02T14:44:16;3.97;;;1.92;;
23376;SDS011;14353;46.070;13.222;2024-03-02T14:46:42;5.15;;;1.98;;
23376;SDS011;14353;46.070;13.222;2024-03-02T14:49:09;5.85;;;2.00;;